This demonstration page uses our WeatherBlox Daily Observations layout. Learn more.

38.88101, -77.10428

Hourly Observations for February 3, 2018

Temp ( °F °C ) Dew Point ( °F °C ) Humidity (%) Winds ( mph kmh ) Pressure ( in mb ) Visibility ( mi km ) Precip ( " mm )
12:52 am 00:52 Clear 20 -6.7 3 -16.1 48 48 WSW 3 6 30.48 1032 10 16.0934 0 0
1:52 am 01:52 Clear 19 -7.2 3 -16.1 49 49 W 6 9 30.49 1033 10 16.0934 0 0
2:52 am 02:52 Clear 18 -7.8 3 -16.1 52 52 W 3 6 30.49 1033 10 16.0934 0 0
3:52 am 03:52 Clear 19 -7.2 4 -15.6 51 51 WNW 3 6 30.5 1033 10 16.0934 0 0
4:52 am 04:52 Clear 18 -7.8 4 -15.6 54 54 NNW 6 9 30.5 1033 10 16.0934 0 0
5:52 am 05:52 Clear 18 -7.8 5 -15 57 57 SW 5 7 30.51 1033 10 16.0934 0 0
6:52 am 06:52 Mostly Clear 19 -7.2 5 -15 54 54 SSW 3 6 30.52 1034 10 16.0934 0 0
7:52 am 07:52 Mostly Sunny 19 -7.2 7 -13.9 59 59 SW 7 11 30.53 1034 10 16.0934 0 0
8:52 am 08:52 Mostly Sunny 22 -5.6 7 -13.9 52 52 SSW 9 15 30.54 1034 10 16.0934 0 0
9:52 am 09:52 Partly Cloudy 25 -3.9 9 -12.8 50 50 S 12 19 30.54 1034 10 16.0934 0 0
10:52 am 10:52 Mostly Sunny 28 -2.2 7 -13.9 41 41 SW 10 17 30.53 1034 10 16.0934 0 0
11:52 am 11:52 Mostly Sunny 30 -1.1 6 -14.4 36 36 SSW 15 24 30.5 1033 10 16.0934 0 0
12:52 pm 12:52 Mostly Sunny 32 0 4 -15.6 30 30 SW 17 28 30.46 1032 10 16.0934 0 0
1:52 pm 13:52 Mostly Sunny 33 0.6 4 -15.6 29 29 SSW 14 22 30.43 1030 10 16.0934 0 0
2:52 pm 14:52 Mostly Sunny 34 1.1 6 -14.4 31 31 SW 14 22 30.4 1030 10 16.0934 0 0
3:52 pm 15:52 Partly Cloudy 34 1.1 4 -15.6 28 28 SSW 17 28 30.4 1029 10 16.0934 0 0
4:52 pm 16:52 Mostly Cloudy 35 1.7 8 -13.3 32 32 S 12 19 30.39 1029 10 16.0934 0 0
5:52 pm 17:52 Partly Cloudy 34 1.1 11 -11.7 38 38 S 13 20 30.39 1029 10 16.0934 0 0
6:52 pm 18:52 Mostly Cloudy 34 1.1 11 -11.7 38 38 S 12 19 30.39 1029 10 16.0934 0 0
7:52 pm 19:52 Cloudy 34 1.1 13 -10.6 42 42 S 13 20 30.38 1029 10 16.0934 0 0
8:52 pm 20:52 Mostly Cloudy 34 1.1 12 -11.1 40 40 S 14 22 30.37 1029 10 16.0934 0 0
9:52 pm 21:52 Cloudy 34 1.1 13 -10.6 42 42 S 15 24 30.36 1028 10 16.0934 0 0
10:52 pm 22:52 Cloudy 34 1.1 13 -10.6 42 42 S 13 20 30.35 1028 10 16.0934 0 0
11:52 pm 23:52 Cloudy 34 1.1 12 -11.1 40 40 S 14 22 30.34 1027 10 16.0934 0 0

Powered by AerisWeather